sensor_id;sensor_type;location;lat;lon;timestamp;pressure;altitude;pressure_sealevel;temperature;humidity
77013;BME280;67260;53.130;17.982;2023-01-30T00:00:59;100622.70;;;1.25;80.65
77013;BME280;67260;53.130;17.982;2023-01-30T00:03:27;100616.20;;;1.22;80.69
77013;BME280;67260;53.130;17.982;2023-01-30T00:05:53;100616.45;;;1.18;80.70
77013;BME280;67260;53.130;17.982;2023-01-30T00:08:20;100612.45;;;1.18;80.78
77013;BME280;67260;53.130;17.982;2023-01-30T00:10:47;100604.00;;;1.19;80.67
77013;BME280;67260;53.130;17.982;2023-01-30T00:13:14;100595.81;;;1.18;80.78
77013;BME280;67260;53.130;17.982;2023-01-30T00:15:41;100597.06;;;1.18;80.83
77013;BME280;67260;53.130;17.982;2023-01-30T00:18:08;100593.31;;;1.17;80.73
77013;BME280;67260;53.130;17.982;2023-01-30T00:20:35;100587.30;;;1.16;80.95
77013;BME280;67260;53.130;17.982;2023-01-30T00:23:03;100577.30;;;1.17;80.83
77013;BME280;67260;53.130;17.982;2023-01-30T00:25:30;100570.77;;;1.19;80.74
77013;BME280;67260;53.130;17.982;2023-01-30T00:28:00;100566.64;;;1.21;80.73
77013;BME280;67260;53.130;17.982;2023-01-30T00:30:29;100560.84;;;1.19;80.80
77013;BME280;67260;53.130;17.982;2023-01-30T00:32:58;100559.55;;;1.15;81.09
77013;BME280;67260;53.130;17.982;2023-01-30T00:35:25;100557.65;;;1.11;81.30
77013;BME280;67260;53.130;17.982;2023-01-30T00:37:55;100557.85;;;1.09;81.26
77013;BME280;67260;53.130;17.982;2023-01-30T00:40:24;100558.73;;;1.09;81.24
77013;BME280;67260;53.130;17.982;2023-01-30T00:42:51;100557.35;;;1.07;81.17
77013;BME280;67260;53.130;17.982;2023-01-30T00:45:37;100551.55;;;1.06;81.18
77013;BME280;67260;53.130;17.982;2023-01-30T00:48:25;100541.69;;;1.07;81.24
77013;BME280;67260;53.130;17.982;2023-01-30T00:50:52;100535.44;;;1.10;81.01
77013;BME280;67260;53.130;17.982;2023-01-30T00:53:18;100531.56;;;1.12;80.87
77013;BME280;67260;53.130;17.982;2023-01-30T00:55:45;100521.02;;;1.11;80.86
77013;BME280;67260;53.130;17.982;2023-01-30T00:58:12;100510.67;;;1.08;80.99
77013;BME280;67260;53.130;17.982;2023-01-30T01:00:39;100508.98;;;1.08;80.91
77013;BME280;67260;53.130;17.982;2023-01-30T01:03:06;100511.54;;;1.10;80.85
77013;BME280;67260;53.130;17.982;2023-01-30T01:05:33;100505.93;;;1.12;80.72
77013;BME280;67260;53.130;17.982;2023-01-30T01:08:00;100500.75;;;1.13;80.63
77013;BME280;67260;53.130;17.982;2023-01-30T01:10:28;100487.83;;;1.12;80.83
77013;BME280;67260;53.130;17.982;2023-01-30T01:12:55;100483.59;;;1.10;80.75
77013;BME280;67260;53.130;17.982;2023-01-30T01:15:23;100479.79;;;1.10;80.73
77013;BME280;67260;53.130;17.982;2023-01-30T01:17:49;100468.45;;;1.10;80.73
77013;BME280;67260;53.130;17.982;2023-01-30T01:20:17;100462.23;;;1.11;80.55
77013;BME280;67260;53.130;17.982;2023-01-30T01:22:45;100463.66;;;1.09;80.72
77013;BME280;67260;53.130;17.982;2023-01-30T01:25:15;100457.94;;;1.09;80.69
77013;BME280;67260;53.130;17.982;2023-01-30T01:27:42;100447.67;;;1.09;80.71
77013;BME280;67260;53.130;17.982;2023-01-30T01:30:09;100441.02;;;1.11;80.60
77013;BME280;67260;53.130;17.982;2023-01-30T01:32:36;100437.47;;;1.13;80.59
77013;BME280;67260;53.130;17.982;2023-01-30T01:35:04;100439.58;;;1.15;80.63
77013;BME280;67260;53.130;17.982;2023-01-30T01:37:31;100436.77;;;1.11;80.80
77013;BME280;67260;53.130;17.982;2023-01-30T01:39:58;100419.59;;;1.09;81.12
77013;BME280;67260;53.130;17.982;2023-01-30T01:42:43;100409.96;;;1.08;81.29
77013;BME280;67260;53.130;17.982;2023-01-30T01:45:21;100398.61;;;1.08;81.23
77013;BME280;67260;53.130;17.982;2023-01-30T01:50:59;100373.27;;;1.00;81.67
77013;BME280;67260;53.130;17.982;2023-01-30T01:53:32;100360.59;;;0.96;81.74
77013;BME280;67260;53.130;17.982;2023-01-30T01:56:01;100342.89;;;0.95;81.69
77013;BME280;67260;53.130;17.982;2023-01-30T01:58:46;100335.66;;;0.96;81.86
77013;BME280;67260;53.130;17.982;2023-01-30T02:01:13;100318.27;;;0.93;81.96
77013;BME280;67260;53.130;17.982;2023-01-30T02:03:44;100309.91;;;0.92;82.06
77013;BME280;67260;53.130;17.982;2023-01-30T02:06:13;100304.03;;;0.91;82.05
77013;BME280;67260;53.130;17.982;2023-01-30T02:08:45;100306.25;;;0.90;82.05
77013;BME280;67260;53.130;17.982;2023-01-30T02:11:24;100297.66;;;0.92;81.70
77013;BME280;67260;53.130;17.982;2023-01-30T02:13:55;100292.50;;;0.93;81.62
77013;BME280;67260;53.130;17.982;2023-01-30T02:16:23;100290.00;;;0.96;81.52
77013;BME280;67260;53.130;17.982;2023-01-30T02:18:50;100287.16;;;0.96;81.40
77013;BME280;67260;53.130;17.982;2023-01-30T02:21:53;100284.55;;;0.96;81.21
77013;BME280;67260;53.130;17.982;2023-01-30T02:42:04;100209.91;;;0.86;81.44
77013;BME280;67260;53.130;17.982;2023-01-30T02:47:14;100214.99;;;0.84;81.23
77013;BME280;67260;53.130;17.982;2023-01-30T02:49:57;100213.16;;;0.78;81.35
77013;BME280;67260;53.130;17.982;2023-01-30T02:52:27;100204.64;;;0.73;81.73
77013;BME280;67260;53.130;17.982;2023-01-30T02:54:54;100197.51;;;0.71;81.25
77013;BME280;67260;53.130;17.982;2023-01-30T02:57:24;100194.40;;;0.69;81.35
77013;BME280;67260;53.130;17.982;2023-01-30T02:59:58;100196.71;;;0.69;81.24
77013;BME280;67260;53.130;17.982;2023-01-30T03:02:40;100191.05;;;0.68;80.99
77013;BME280;67260;53.130;17.982;2023-01-30T03:08:31;100168.45;;;0.67;80.71
77013;BME280;67260;53.130;17.982;2023-01-30T03:11:05;100168.55;;;0.70;80.51
77013;BME280;67260;53.130;17.982;2023-01-30T03:13:36;100174.88;;;0.73;80.48
77013;BME280;67260;53.130;17.982;2023-01-30T03:16:17;100173.98;;;0.73;80.34
77013;BME280;67260;53.130;17.982;2023-01-30T03:18:47;100166.14;;;0.71;80.24
77013;BME280;67260;53.130;17.982;2023-01-30T03:21:16;100163.14;;;0.72;79.91
77013;BME280;67260;53.130;17.982;2023-01-30T03:23:44;100153.34;;;0.72;79.99
77013;BME280;67260;53.130;17.982;2023-01-30T03:26:17;100144.68;;;0.73;79.92
77013;BME280;67260;53.130;17.982;2023-01-30T03:28:48;100140.23;;;0.76;79.80
77013;BME280;67260;53.130;17.982;2023-01-30T03:31:16;100142.80;;;0.76;79.74
77013;BME280;67260;53.130;17.982;2023-01-30T03:33:43;100141.65;;;0.75;79.74
77013;BME280;67260;53.130;17.982;2023-01-30T03:36:09;100145.67;;;0.75;79.60
77013;BME280;67260;53.130;17.982;2023-01-30T03:38:37;100136.79;;;0.75;79.47
77013;BME280;67260;53.130;17.982;2023-01-30T03:41:04;100126.53;;;0.77;79.40
77013;BME280;67260;53.130;17.982;2023-01-30T03:43:32;100120.81;;;0.78;79.40
77013;BME280;67260;53.130;17.982;2023-01-30T03:46:00;100108.10;;;0.78;79.59
77013;BME280;67260;53.130;17.982;2023-01-30T03:48:26;100114.23;;;0.79;79.48
77013;BME280;67260;53.130;17.982;2023-01-30T03:50:55;100112.62;;;0.80;79.18
77013;BME280;67260;53.130;17.982;2023-01-30T03:53:22;100108.13;;;0.77;79.37
77013;BME280;67260;53.130;17.982;2023-01-30T03:55:49;100112.05;;;0.75;79.91
77013;BME280;67260;53.130;17.982;2023-01-30T03:58:19;100099.81;;;0.70;80.34
77013;BME280;67260;53.130;17.982;2023-01-30T04:00:46;100092.08;;;0.66;80.87
77013;BME280;67260;53.130;17.982;2023-01-30T04:03:12;100084.00;;;0.60;81.17
77013;BME280;67260;53.130;17.982;2023-01-30T04:05:42;100080.31;;;0.52;81.66
77013;BME280;67260;53.130;17.982;2023-01-30T04:08:09;100077.10;;;0.44;81.72
77013;BME280;67260;53.130;17.982;2023-01-30T04:10:36;100071.66;;;0.39;81.85
77013;BME280;67260;53.130;17.982;2023-01-30T04:13:03;100058.95;;;0.38;82.08
77013;BME280;67260;53.130;17.982;2023-01-30T04:15:30;100044.36;;;0.32;82.20
77013;BME280;67260;53.130;17.982;2023-01-30T04:18:17;100032.94;;;0.24;83.01
77013;BME280;67260;53.130;17.982;2023-01-30T04:20:47;100026.22;;;0.20;83.96
77013;BME280;67260;53.130;17.982;2023-01-30T04:23:15;100012.86;;;0.15;84.10
77013;BME280;67260;53.130;17.982;2023-01-30T04:25:45;100006.76;;;0.10;84.29
77013;BME280;67260;53.130;17.982;2023-01-30T04:28:14;100008.84;;;0.07;84.42
77013;BME280;67260;53.130;17.982;2023-01-30T04:30:42;100005.94;;;0.07;84.20
77013;BME280;67260;53.130;17.982;2023-01-30T04:33:26;100008.41;;;0.06;83.98
77013;BME280;67260;53.130;17.982;2023-01-30T04:35:54;100004.79;;;0.07;83.95
77013;BME280;67260;53.130;17.982;2023-01-30T04:38:22;100011.59;;;0.09;83.86
77013;BME280;67260;53.130;17.982;2023-01-30T04:40:51;100013.16;;;0.11;83.43
77013;BME280;67260;53.130;17.982;2023-01-30T04:43:19;100001.51;;;0.10;83.19
77013;BME280;67260;53.130;17.982;2023-01-30T04:46:06;99982.66;;;0.09;83.04
77013;BME280;67260;53.130;17.982;2023-01-30T04:48:33;99978.48;;;0.07;82.78
77013;BME280;67260;53.130;17.982;2023-01-30T04:51:00;99969.17;;;0.05;82.75
77013;BME280;67260;53.130;17.982;2023-01-30T04:53:32;99973.20;;;0.01;83.02
77013;BME280;67260;53.130;17.982;2023-01-30T04:55:59;99963.42;;;-0.00;83.32
77013;BME280;67260;53.130;17.982;2023-01-30T04:58:26;99964.03;;;0.01;83.29
77013;BME280;67260;53.130;17.982;2023-01-30T05:00:52;99954.55;;;0.02;83.29
77013;BME280;67260;53.130;17.982;2023-01-30T05:03:19;99948.90;;;0.01;83.29
77013;BME280;67260;53.130;17.982;2023-01-30T05:05:46;99946.82;;;-0.01;83.16
77013;BME280;67260;53.130;17.982;2023-01-30T05:08:14;99940.39;;;-0.03;82.98
77013;BME280;67260;53.130;17.982;2023-01-30T05:10:41;99926.69;;;-0.02;83.20
77013;BME280;67260;53.130;17.982;2023-01-30T05:13:08;99926.00;;;-0.00;82.92
77013;BME280;67260;53.130;17.982;2023-01-30T05:15:34;99918.08;;;-0.01;82.99
77013;BME280;67260;53.130;17.982;2023-01-30T05:18:01;99916.20;;;-0.03;83.03
77013;BME280;67260;53.130;17.982;2023-01-30T05:20:28;99914.30;;;-0.05;83.24
77013;BME280;67260;53.130;17.982;2023-01-30T05:22:55;99909.83;;;-0.05;83.38
77013;BME280;67260;53.130;17.982;2023-01-30T05:25:21;99902.84;;;-0.07;83.34
77013;BME280;67260;53.130;17.982;2023-01-30T05:27:48;99895.02;;;-0.08;83.59
77013;BME280;67260;53.130;17.982;2023-01-30T05:30:15;99890.73;;;-0.09;83.87
77013;BME280;67260;53.130;17.982;2023-01-30T05:32:42;99883.91;;;-0.10;83.91
77013;BME280;67260;53.130;17.982;2023-01-30T05:35:08;99875.09;;;-0.12;84.06
77013;BME280;67260;53.130;17.982;2023-01-30T05:37:35;99869.02;;;-0.13;84.35
77013;BME280;67260;53.130;17.982;2023-01-30T05:40:03;99860.11;;;-0.12;84.25
77013;BME280;67260;53.130;17.982;2023-01-30T05:42:31;99853.82;;;-0.12;84.21
77013;BME280;67260;53.130;17.982;2023-01-30T05:44:58;99853.52;;;-0.11;84.35
77013;BME280;67260;53.130;17.982;2023-01-30T05:47:24;99846.25;;;-0.10;84.33
77013;BME280;67260;53.130;17.982;2023-01-30T05:49:51;99838.08;;;-0.08;84.42
77013;BME280;67260;53.130;17.982;2023-01-30T05:52:17;99837.29;;;-0.09;84.27
77013;BME280;67260;53.130;17.982;2023-01-30T05:54:44;99842.17;;;-0.09;84.02
77013;BME280;67260;53.130;17.982;2023-01-30T05:57:11;99845.58;;;-0.07;84.09
77013;BME280;67260;53.130;17.982;2023-01-30T05:59:38;99851.47;;;-0.03;83.83
77013;BME280;67260;53.130;17.982;2023-01-30T06:02:05;99856.73;;;0.02;83.60
77013;BME280;67260;53.130;17.982;2023-01-30T06:04:31;99854.13;;;0.05;83.50
77013;BME280;67260;53.130;17.982;2023-01-30T06:06:58;99847.98;;;0.05;83.14
77013;BME280;67260;53.130;17.982;2023-01-30T06:09:24;99844.83;;;0.06;83.09
77013;BME280;67260;53.130;17.982;2023-01-30T06:11:51;99847.40;;;0.09;83.00
77013;BME280;67260;53.130;17.982;2023-01-30T06:14:18;99839.29;;;0.12;82.85
77013;BME280;67260;53.130;17.982;2023-01-30T06:16:44;99836.68;;;0.15;82.58
77013;BME280;67260;53.130;17.982;2023-01-30T06:19:11;99832.44;;;0.16;82.80
77013;BME280;67260;53.130;17.982;2023-01-30T06:21:38;99830.41;;;0.17;82.65
77013;BME280;67260;53.130;17.982;2023-01-30T06:24:05;99830.51;;;0.17;82.65
77013;BME280;67260;53.130;17.982;2023-01-30T06:26:31;99825.91;;;0.20;82.62
77013;BME280;67260;53.130;17.982;2023-01-30T06:28:58;99812.40;;;0.22;82.45
77013;BME280;67260;53.130;17.982;2023-01-30T06:31:25;99812.02;;;0.24;82.39
77013;BME280;67260;53.130;17.982;2023-01-30T06:33:52;99805.55;;;0.26;82.38
77013;BME280;67260;53.130;17.982;2023-01-30T06:36:18;99805.91;;;0.28;82.56
77013;BME280;67260;53.130;17.982;2023-01-30T06:38:45;99801.08;;;0.29;82.68
77013;BME280;67260;53.130;17.982;2023-01-30T06:41:11;99801.92;;;0.31;82.51
77013;BME280;67260;53.130;17.982;2023-01-30T06:43:40;99801.80;;;0.34;82.76
77013;BME280;67260;53.130;17.982;2023-01-30T06:46:07;99798.14;;;0.34;82.82
77013;BME280;67260;53.130;17.982;2023-01-30T06:48:35;99790.52;;;0.30;83.21
77013;BME280;67260;53.130;17.982;2023-01-30T06:51:01;99787.79;;;0.24;83.62
77013;BME280;67260;53.130;17.982;2023-01-30T06:53:29;99783.38;;;0.22;84.31
77013;BME280;67260;53.130;17.982;2023-01-30T06:55:57;99786.18;;;0.13;84.73
77013;BME280;67260;53.130;17.982;2023-01-30T06:58:24;99788.43;;;0.02;85.18
77013;BME280;67260;53.130;17.982;2023-01-30T07:00:51;99785.12;;;-0.04;85.74
77013;BME280;67260;53.130;17.982;2023-01-30T07:03:18;99778.00;;;-0.06;86.10
77013;BME280;67260;53.130;17.982;2023-01-30T07:05:46;99772.21;;;-0.07;86.38
77013;BME280;67260;53.130;17.982;2023-01-30T07:08:14;99766.88;;;-0.08;86.38
77013;BME280;67260;53.130;17.982;2023-01-30T07:10:42;99760.77;;;-0.08;86.53
77013;BME280;67260;53.130;17.982;2023-01-30T07:13:10;99756.89;;;-0.07;86.53
77013;BME280;67260;53.130;17.982;2023-01-30T07:15:37;99752.00;;;-0.05;86.61
77013;BME280;67260;53.130;17.982;2023-01-30T07:18:04;99745.56;;;-0.08;86.26
77013;BME280;67260;53.130;17.982;2023-01-30T07:20:31;99745.04;;;-0.13;86.47
77013;BME280;67260;53.130;17.982;2023-01-30T07:22:58;99746.89;;;-0.18;86.98
77013;BME280;67260;53.130;17.982;2023-01-30T07:25:25;99735.05;;;-0.19;87.44
77013;BME280;67260;53.130;17.982;2023-01-30T07:27:57;99732.66;;;-0.18;87.95
77013;BME280;67260;53.130;17.982;2023-01-30T07:30:25;99735.35;;;-0.16;88.09
77013;BME280;67260;53.130;17.982;2023-01-30T07:32:55;99734.64;;;-0.14;87.85
77013;BME280;67260;53.130;17.982;2023-01-30T07:35:24;99726.84;;;-0.17;87.71
77013;BME280;67260;53.130;17.982;2023-01-30T07:37:51;99730.70;;;-0.21;87.68
77013;BME280;67260;53.130;17.982;2023-01-30T07:40:19;99728.78;;;-0.23;87.61
77013;BME280;67260;53.130;17.982;2023-01-30T07:42:57;99721.64;;;-0.21;87.72
77013;BME280;67260;53.130;17.982;2023-01-30T07:45:27;99724.61;;;-0.19;87.69
77013;BME280;67260;53.130;17.982;2023-01-30T07:47:55;99719.46;;;-0.18;87.61
77013;BME280;67260;53.130;17.982;2023-01-30T07:50:22;99716.03;;;-0.17;87.74
77013;BME280;67260;53.130;17.982;2023-01-30T07:52:48;99719.91;;;-0.16;87.49
77013;BME280;67260;53.130;17.982;2023-01-30T07:55:15;99713.21;;;-0.17;87.64
77013;BME280;67260;53.130;17.982;2023-01-30T07:57:43;99707.12;;;-0.17;87.58
77013;BME280;67260;53.130;17.982;2023-01-30T08:00:10;99708.04;;;-0.12;87.60
77013;BME280;67260;53.130;17.982;2023-01-30T08:02:37;99705.04;;;-0.07;87.43
77013;BME280;67260;53.130;17.982;2023-01-30T08:05:04;99704.83;;;-0.00;87.22
77013;BME280;67260;53.130;17.982;2023-01-30T08:07:31;99697.51;;;0.06;87.20
77013;BME280;67260;53.130;17.982;2023-01-30T08:09:58;99703.59;;;0.13;87.08
77013;BME280;67260;53.130;17.982;2023-01-30T08:12:25;99691.39;;;0.16;86.88
77013;BME280;67260;53.130;17.982;2023-01-30T08:14:52;99687.93;;;0.19;86.74
77013;BME280;67260;53.130;17.982;2023-01-30T08:17:18;99682.77;;;0.20;86.91
77013;BME280;67260;53.130;17.982;2023-01-30T08:19:45;99682.21;;;0.24;86.60
77013;BME280;67260;53.130;17.982;2023-01-30T08:22:13;99684.39;;;0.29;86.64
77013;BME280;67260;53.130;17.982;2023-01-30T08:24:40;99683.14;;;0.34;86.36
77013;BME280;67260;53.130;17.982;2023-01-30T08:27:07;99689.86;;;0.38;86.48
77013;BME280;67260;53.130;17.982;2023-01-30T08:29:33;99687.73;;;0.42;86.31
77013;BME280;67260;53.130;17.982;2023-01-30T08:32:00;99688.58;;;0.42;86.43
77013;BME280;67260;53.130;17.982;2023-01-30T08:34:27;99685.60;;;0.44;86.25
77013;BME280;67260;53.130;17.982;2023-01-30T08:36:54;99685.82;;;0.49;86.34
77013;BME280;67260;53.130;17.982;2023-01-30T08:39:20;99682.80;;;0.56;86.29
77013;BME280;67260;53.130;17.982;2023-01-30T08:41:47;99679.22;;;0.62;86.24
77013;BME280;67260;53.130;17.982;2023-01-30T08:44:14;99677.80;;;0.67;86.28
77013;BME280;67260;53.130;17.982;2023-01-30T08:46:40;99676.20;;;0.72;86.11
77013;BME280;67260;53.130;17.982;2023-01-30T08:49:07;99676.63;;;0.75;86.00
77013;BME280;67260;53.130;17.982;2023-01-30T08:51:34;99673.73;;;0.80;85.96
77013;BME280;67260;53.130;17.982;2023-01-30T08:54:00;99675.14;;;0.90;85.87
77013;BME280;67260;53.130;17.982;2023-01-30T08:56:27;99674.23;;;1.01;85.70
77013;BME280;67260;53.130;17.982;2023-01-30T08:58:54;99676.45;;;1.10;85.58
77013;BME280;67260;53.130;17.982;2023-01-30T09:01:20;99676.92;;;1.14;85.47
77013;BME280;67260;53.130;17.982;2023-01-30T09:03:47;99675.84;;;1.13;85.31
77013;BME280;67260;53.130;17.982;2023-01-30T09:06:14;99675.87;;;1.09;85.43
77013;BME280;67260;53.130;17.982;2023-01-30T09:08:40;99674.58;;;1.05;85.56
77013;BME280;67260;53.130;17.982;2023-01-30T09:11:07;99673.50;;;1.06;85.45
77013;BME280;67260;53.130;17.982;2023-01-30T09:13:35;99675.76;;;1.10;85.48
77013;BME280;67260;53.130;17.982;2023-01-30T09:16:05;99672.63;;;1.12;85.53
77013;BME280;67260;53.130;17.982;2023-01-30T09:18:32;99666.89;;;1.18;85.48
77013;BME280;67260;53.130;17.982;2023-01-30T09:21:02;99666.58;;;1.22;85.55
77013;BME280;67260;53.130;17.982;2023-01-30T09:23:29;99663.25;;;1.27;85.34
77013;BME280;67260;53.130;17.982;2023-01-30T09:25:56;99660.45;;;1.39;85.34
77013;BME280;67260;53.130;17.982;2023-01-30T09:28:22;99658.98;;;1.50;84.98
77013;BME280;67260;53.130;17.982;2023-01-30T09:30:49;99661.01;;;1.60;84.82
77013;BME280;67260;53.130;17.982;2023-01-30T09:33:16;99660.55;;;1.66;84.77
77013;BME280;67260;53.130;17.982;2023-01-30T09:35:47;99660.50;;;1.71;84.54
77013;BME280;67260;53.130;17.982;2023-01-30T09:38:14;99662.55;;;1.73;84.45
77013;BME280;67260;53.130;17.982;2023-01-30T09:44:02;99655.71;;;1.76;84.20
77013;BME280;67260;53.130;17.982;2023-01-30T09:46:49;99647.41;;;1.75;84.29
77013;BME280;67260;53.130;17.982;2023-01-30T09:49:35;99640.95;;;1.80;84.26
77013;BME280;67260;53.130;17.982;2023-01-30T09:52:29;99640.60;;;1.80;84.11
77013;BME280;67260;53.130;17.982;2023-01-30T09:55:18;99633.99;;;1.78;84.15
77013;BME280;67260;53.130;17.982;2023-01-30T09:57:47;99634.09;;;1.76;84.28
77013;BME280;67260;53.130;17.982;2023-01-30T10:00:31;99627.73;;;1.78;84.32
77013;BME280;67260;53.130;17.982;2023-01-30T10:03:53;99624.60;;;1.79;84.35
77013;BME280;67260;53.130;17.982;2023-01-30T10:05:55;99622.14;;;1.79;84.21
77013;BME280;67260;53.130;17.982;2023-01-30T10:08:45;99616.20;;;1.81;84.26
77013;BME280;67260;53.130;17.982;2023-01-30T10:14:06;99604.04;;;1.83;84.27
77013;BME280;67260;53.130;17.982;2023-01-30T10:16:58;99600.92;;;1.90;84.23
77013;BME280;67260;53.130;17.982;2023-01-30T10:19:52;99589.34;;;2.06;84.10
77013;BME280;67260;53.130;17.982;2023-01-30T10:27:48;99580.15;;;2.51;83.29
77013;BME280;67260;53.130;17.982;2023-01-30T10:30:16;99578.29;;;2.68;82.92
77013;BME280;67260;53.130;17.982;2023-01-30T10:33:02;99582.85;;;2.78;82.37
77013;BME280;67260;53.130;17.982;2023-01-30T10:35:35;99582.74;;;2.83;82.28
77013;BME280;67260;53.130;17.982;2023-01-30T10:38:15;99573.61;;;2.88;82.30
77013;BME280;67260;53.130;17.982;2023-01-30T10:40:51;99570.86;;;2.99;82.21
77013;BME280;67260;53.130;17.982;2023-01-30T10:43:42;99576.92;;;3.09;81.74
77013;BME280;67260;53.130;17.982;2023-01-30T10:46:48;99578.34;;;3.13;81.81
77013;BME280;67260;53.130;17.982;2023-01-30T10:49:46;99569.23;;;3.16;81.90
77013;BME280;67260;53.130;17.982;2023-01-30T10:55:10;99563.34;;;3.24;81.27
77013;BME280;67260;53.130;17.982;2023-01-30T10:58:18;99561.91;;;3.32;81.33
77013;BME280;67260;53.130;17.982;2023-01-30T11:06:22;99566.11;;;3.32;80.90
77013;BME280;67260;53.130;17.982;2023-01-30T11:08:50;99568.70;;;3.28;81.07
77013;BME280;67260;53.130;17.982;2023-01-30T11:11:28;99555.98;;;3.32;81.22
77013;BME280;67260;53.130;17.982;2023-01-30T11:14:07;99558.81;;;3.33;81.14
77013;BME280;67260;53.130;17.982;2023-01-30T11:16:44;99547.95;;;3.43;80.42
77013;BME280;67260;53.130;17.982;2023-01-30T11:19:32;99537.66;;;3.48;80.37
77013;BME280;67260;53.130;17.982;2023-01-30T11:22:02;99535.02;;;3.60;80.35
77013;BME280;67260;53.130;17.982;2023-01-30T11:27:20;99534.05;;;3.67;80.01
77013;BME280;67260;53.130;17.982;2023-01-30T11:30:02;99537.21;;;3.69;79.75
77013;BME280;67260;53.130;17.982;2023-01-30T11:32:29;99531.23;;;3.68;79.81
77013;BME280;67260;53.130;17.982;2023-01-30T11:40:46;99532.66;;;3.70;80.32
77013;BME280;67260;53.130;17.982;2023-01-30T11:43:16;99530.29;;;3.76;79.21
77013;BME280;67260;53.130;17.982;2023-01-30T11:45:43;99527.88;;;3.73;79.78
77013;BME280;67260;53.130;17.982;2023-01-30T11:49:18;99523.30;;;3.77;79.79
77013;BME280;67260;53.130;17.982;2023-01-30T11:51:51;99528.02;;;3.83;79.53
77013;BME280;67260;53.130;17.982;2023-01-30T11:54:29;99529.70;;;3.93;78.98
77013;BME280;67260;53.130;17.982;2023-01-30T11:56:57;99524.09;;;3.93;79.08
77013;BME280;67260;53.130;17.982;2023-01-30T11:59:59;99516.19;;;3.98;78.82
77013;BME280;67260;53.130;17.982;2023-01-30T12:02:32;99517.14;;;3.96;79.33
77013;BME280;67260;53.130;17.982;2023-01-30T12:05:17;99515.91;;;3.97;79.11
77013;BME280;67260;53.130;17.982;2023-01-30T12:10:59;99517.83;;;3.96;78.62
77013;BME280;67260;53.130;17.982;2023-01-30T12:22:09;99504.71;;;3.78;79.81
77013;BME280;67260;53.130;17.982;2023-01-30T12:24:59;99499.27;;;3.86;80.09
77013;BME280;67260;53.130;17.982;2023-01-30T12:30:25;99477.80;;;4.01;80.02
77013;BME280;67260;53.130;17.982;2023-01-30T12:33:11;99477.12;;;4.09;80.15
77013;BME280;67260;53.130;17.982;2023-01-30T12:45:36;99484.77;;;4.16;78.98
77013;BME280;67260;53.130;17.982;2023-01-30T12:48:24;99486.36;;;4.20;79.66
77013;BME280;67260;53.130;17.982;2023-01-30T12:51:10;99482.31;;;4.31;79.70
77013;BME280;67260;53.130;17.982;2023-01-30T13:04:28;99451.68;;;4.68;78.09
77013;BME280;67260;53.130;17.982;2023-01-30T13:07:21;99448.93;;;4.71;77.33
77013;BME280;67260;53.130;17.982;2023-01-30T13:15:44;99437.79;;;4.31;78.21
77013;BME280;67260;53.130;17.982;2023-01-30T13:18:17;99454.21;;;4.19;78.71
77013;BME280;67260;53.130;17.982;2023-01-30T13:26:27;99456.23;;;4.12;78.88
77013;BME280;67260;53.130;17.982;2023-01-30T13:28:59;99453.73;;;4.17;78.61
77013;BME280;67260;53.130;17.982;2023-01-30T13:31:31;99454.02;;;4.26;78.91
77013;BME280;67260;53.130;17.982;2023-01-30T13:34:12;99444.27;;;4.33;78.42
77013;BME280;67260;53.130;17.982;2023-01-30T13:36:50;99445.16;;;4.34;78.09
77013;BME280;67260;53.130;17.982;2023-01-30T13:39:29;99449.33;;;4.32;79.26
77013;BME280;67260;53.130;17.982;2023-01-30T13:41:59;99454.35;;;4.26;81.04
77013;BME280;67260;53.130;17.982;2023-01-30T13:44:31;99456.19;;;4.18;80.90
77013;BME280;67260;53.130;17.982;2023-01-30T13:52:32;99464.04;;;3.99;81.75
77013;BME280;67260;53.130;17.982;2023-01-30T13:56:04;99462.45;;;3.85;81.65
77013;BME280;67260;53.130;17.982;2023-01-30T13:58:36;99466.52;;;3.71;82.23
77013;BME280;67260;53.130;17.982;2023-01-30T14:01:10;99468.69;;;3.69;82.76
77013;BME280;67260;53.130;17.982;2023-01-30T14:03:39;99469.20;;;3.65;81.70
77013;BME280;67260;53.130;17.982;2023-01-30T14:06:30;99456.39;;;3.53;81.79
77013;BME280;67260;53.130;17.982;2023-01-30T14:09:02;99452.59;;;3.40;82.13
77013;BME280;67260;53.130;17.982;2023-01-30T14:11:35;99456.70;;;3.34;82.64
77013;BME280;67260;53.130;17.982;2023-01-30T14:16:47;99451.73;;;3.22;82.57
77013;BME280;67260;53.130;17.982;2023-01-30T14:22:17;99457.16;;;3.20;82.53
77013;BME280;67260;53.130;17.982;2023-01-30T14:24:44;99459.55;;;3.16;82.70
77013;BME280;67260;53.130;17.982;2023-01-30T14:27:26;99466.38;;;3.16;82.86
77013;BME280;67260;53.130;17.982;2023-01-30T14:29:57;99474.59;;;3.11;82.97
77013;BME280;67260;53.130;17.982;2023-01-30T14:45:58;99480.14;;;3.25;82.43
77013;BME280;67260;53.130;17.982;2023-01-30T14:51:22;99486.41;;;3.28;82.63
77013;BME280;67260;53.130;17.982;2023-01-30T14:59:26;99480.84;;;3.22;82.18
77013;BME280;67260;53.130;17.982;2023-01-30T15:18:09;99479.43;;;3.06;81.79
77013;BME280;67260;53.130;17.982;2023-01-30T15:21:03;99481.28;;;2.96;82.07
77013;BME280;67260;53.130;17.982;2023-01-30T15:24:02;99483.49;;;2.87;82.30
77013;BME280;67260;53.130;17.982;2023-01-30T15:32:17;99479.87;;;2.71;82.63
77013;BME280;67260;53.130;17.982;2023-01-30T15:34:57;99487.05;;;2.68;82.68
77013;BME280;67260;53.130;17.982;2023-01-30T15:42:43;99503.44;;;2.61;82.58
77013;BME280;67260;53.130;17.982;2023-01-30T15:47:45;99500.66;;;2.51;82.60
77013;BME280;67260;53.130;17.982;2023-01-30T15:50:17;99504.71;;;2.46;82.72
77013;BME280;67260;53.130;17.982;2023-01-30T15:52:45;99504.45;;;2.47;82.90
77013;BME280;67260;53.130;17.982;2023-01-30T15:55:24;99506.02;;;2.54;82.79
77013;BME280;67260;53.130;17.982;2023-01-30T15:57:53;99509.06;;;2.62;82.44
77013;BME280;67260;53.130;17.982;2023-01-30T16:00:28;99519.36;;;2.68;82.16
77013;BME280;67260;53.130;17.982;2023-01-30T16:02:56;99520.55;;;2.73;82.06